sensor_id;sensor_type;location;lat;lon;timestamp;temperature;humidity
68276;DHT22;55106;51.438;-0.098;2022-11-15T00:00:26;9.25;97.99
68276;DHT22;55106;51.438;-0.098;2022-11-15T00:02:54;9.20;98.09
68276;DHT22;55106;51.438;-0.098;2022-11-15T00:05:20;9.10;98.42
68276;DHT22;55106;51.438;-0.098;2022-11-15T00:07:46;9.10;98.56
68276;DHT22;55106;51.438;-0.098;2022-11-15T00:10:12;9.15;98.36
68276;DHT22;55106;51.438;-0.098;2022-11-15T00:12:37;9.12;98.50
68276;DHT22;55106;51.438;-0.098;2022-11-15T00:15:03;9.18;98.00
68276;DHT22;55106;51.438;-0.098;2022-11-15T00:17:28;9.12;98.22
68276;DHT22;55106;51.438;-0.098;2022-11-15T00:19:54;9.10;98.80
68276;DHT22;55106;51.438;-0.098;2022-11-15T00:22:20;9.01;98.60
68276;DHT22;55106;51.438;-0.098;2022-11-15T00:24:45;8.91;98.92
68276;DHT22;55106;51.438;-0.098;2022-11-15T00:27:10;8.93;99.08
68276;DHT22;55106;51.438;-0.098;2022-11-15T00:29:36;8.84;99.10
68276;DHT22;55106;51.438;-0.098;2022-11-15T00:32:04;8.88;99.00
68276;DHT22;55106;51.438;-0.098;2022-11-15T00:34:29;8.90;98.77
68276;DHT22;55106;51.438;-0.098;2022-11-15T00:36:54;8.88;98.52
68276;DHT22;55106;51.438;-0.098;2022-11-15T00:39:20;9.14;97.17
68276;DHT22;55106;51.438;-0.098;2022-11-15T00:41:45;9.12;96.98
68276;DHT22;55106;51.438;-0.098;2022-11-15T00:44:11;9.05;97.61
68276;DHT22;55106;51.438;-0.098;2022-11-15T00:46:36;9.12;96.71
68276;DHT22;55106;51.438;-0.098;2022-11-15T00:49:01;9.21;96.21
68276;DHT22;55106;51.438;-0.098;2022-11-15T00:51:27;9.28;95.68
68276;DHT22;55106;51.438;-0.098;2022-11-15T00:53:52;9.24;95.71
68276;DHT22;55106;51.438;-0.098;2022-11-15T00:56:17;9.25;95.82
68276;DHT22;55106;51.438;-0.098;2022-11-15T00:58:43;9.25;95.72
68276;DHT22;55106;51.438;-0.098;2022-11-15T01:01:13;9.28;95.31
68276;DHT22;55106;51.438;-0.098;2022-11-15T01:03:39;9.30;95.35
68276;DHT22;55106;51.438;-0.098;2022-11-15T01:06:06;9.34;95.13
68276;DHT22;55106;51.438;-0.098;2022-11-15T01:08:32;9.27;95.46
68276;DHT22;55106;51.438;-0.098;2022-11-15T01:11:06;9.25;95.43
68276;DHT22;55106;51.438;-0.098;2022-11-15T01:13:33;9.31;95.04
68276;DHT22;55106;51.438;-0.098;2022-11-15T01:16:04;9.30;94.65
68276;DHT22;55106;51.438;-0.098;2022-11-15T01:18:30;9.36;94.65
68276;DHT22;55106;51.438;-0.098;2022-11-15T01:20:55;9.53;93.74
68276;DHT22;55106;51.438;-0.098;2022-11-15T01:23:21;9.48;94.08
68276;DHT22;55106;51.438;-0.098;2022-11-15T01:25:46;9.45;93.97
68276;DHT22;55106;51.438;-0.098;2022-11-15T01:28:11;9.41;94.61
68276;DHT22;55106;51.438;-0.098;2022-11-15T01:30:37;9.42;94.29
68276;DHT22;55106;51.438;-0.098;2022-11-15T01:33:02;9.36;94.52
68276;DHT22;55106;51.438;-0.098;2022-11-15T01:35:27;9.38;94.16
68276;DHT22;55106;51.438;-0.098;2022-11-15T01:37:53;9.38;94.63
68276;DHT22;55106;51.438;-0.098;2022-11-15T01:40:18;9.49;94.18
68276;DHT22;55106;51.438;-0.098;2022-11-15T01:42:43;9.38;94.43
68276;DHT22;55106;51.438;-0.098;2022-11-15T01:45:14;9.41;94.39
68276;DHT22;55106;51.438;-0.098;2022-11-15T01:47:48;9.41;94.34
68276;DHT22;55106;51.438;-0.098;2022-11-15T01:50:19;9.39;94.63
68276;DHT22;55106;51.438;-0.098;2022-11-15T01:52:46;9.56;93.94
68276;DHT22;55106;51.438;-0.098;2022-11-15T01:55:19;9.72;93.01
68276;DHT22;55106;51.438;-0.098;2022-11-15T01:57:46;9.73;93.24
68276;DHT22;55106;51.438;-0.098;2022-11-15T02:00:13;9.72;93.31
68276;DHT22;55106;51.438;-0.098;2022-11-15T02:02:39;9.70;93.80
68276;DHT22;55106;51.438;-0.098;2022-11-15T02:05:05;9.76;93.35
68276;DHT22;55106;51.438;-0.098;2022-11-15T02:07:31;9.80;93.17
68276;DHT22;55106;51.438;-0.098;2022-11-15T02:10:09;9.73;93.65
68276;DHT22;55106;51.438;-0.098;2022-11-15T02:12:35;9.76;93.73
68276;DHT22;55106;51.438;-0.098;2022-11-15T02:15:02;9.60;94.09
68276;DHT22;55106;51.438;-0.098;2022-11-15T02:17:48;9.52;94.56
68276;DHT22;55106;51.438;-0.098;2022-11-15T02:26:22;9.38;95.72
68276;DHT22;55106;51.438;-0.098;2022-11-15T02:31:54;9.43;95.33
68276;DHT22;55106;51.438;-0.098;2022-11-15T02:37:20;9.79;94.32
68276;DHT22;55106;51.438;-0.098;2022-11-15T02:39:47;9.91;93.66
68276;DHT22;55106;51.438;-0.098;2022-11-15T02:42:30;9.76;94.50
68276;DHT22;55106;51.438;-0.098;2022-11-15T02:45:24;9.86;93.83
68276;DHT22;55106;51.438;-0.098;2022-11-15T02:47:54;9.76;94.50
68276;DHT22;55106;51.438;-0.098;2022-11-15T02:50:25;9.75;94.32
68276;DHT22;55106;51.438;-0.098;2022-11-15T02:52:51;9.80;93.63
68276;DHT22;55106;51.438;-0.098;2022-11-15T02:55:34;9.63;94.49
68276;DHT22;55106;51.438;-0.098;2022-11-15T03:01:24;9.63;94.54
68276;DHT22;55106;51.438;-0.098;2022-11-15T03:04:07;9.60;94.80
68276;DHT22;55106;51.438;-0.098;2022-11-15T03:06:42;9.65;94.56
68276;DHT22;55106;51.438;-0.098;2022-11-15T03:09:39;9.68;94.83
68276;DHT22;55106;51.438;-0.098;2022-11-15T03:12:49;9.62;94.68
68276;DHT22;55106;51.438;-0.098;2022-11-15T03:15:38;9.56;94.97
68276;DHT22;55106;51.438;-0.098;2022-11-15T03:18:21;9.58;94.75
68276;DHT22;55106;51.438;-0.098;2022-11-15T03:20:48;9.56;95.08
68276;DHT22;55106;51.438;-0.098;2022-11-15T03:23:14;9.55;95.26
68276;DHT22;55106;51.438;-0.098;2022-11-15T03:25:47;9.49;95.27
68276;DHT22;55106;51.438;-0.098;2022-11-15T03:28:17;9.49;95.42
68276;DHT22;55106;51.438;-0.098;2022-11-15T03:30:45;9.55;95.61
68276;DHT22;55106;51.438;-0.098;2022-11-15T03:33:13;9.52;95.88
68276;DHT22;55106;51.438;-0.098;2022-11-15T03:35:41;9.56;96.03
68276;DHT22;55106;51.438;-0.098;2022-11-15T03:40:44;9.73;95.86
68276;DHT22;55106;51.438;-0.098;2022-11-15T03:43:21;9.79;95.60
68276;DHT22;55106;51.438;-0.098;2022-11-15T03:46:23;9.78;96.00
68276;DHT22;55106;51.438;-0.098;2022-11-15T03:49:03;9.73;96.07
68276;DHT22;55106;51.438;-0.098;2022-11-15T03:51:30;9.72;96.26
68276;DHT22;55106;51.438;-0.098;2022-11-15T03:53:55;9.76;96.24
68276;DHT22;55106;51.438;-0.098;2022-11-15T03:56:20;9.78;96.18
68276;DHT22;55106;51.438;-0.098;2022-11-15T03:58:46;9.86;96.14
68276;DHT22;55106;51.438;-0.098;2022-11-15T04:01:11;9.96;96.10
68276;DHT22;55106;51.438;-0.098;2022-11-15T04:03:36;9.96;95.84
68276;DHT22;55106;51.438;-0.098;2022-11-15T04:06:02;9.90;96.16
68276;DHT22;55106;51.438;-0.098;2022-11-15T04:08:27;9.90;96.42
68276;DHT22;55106;51.438;-0.098;2022-11-15T04:10:52;9.94;96.36
68276;DHT22;55106;51.438;-0.098;2022-11-15T04:13:18;9.94;96.29
68276;DHT22;55106;51.438;-0.098;2022-11-15T04:15:43;10.00;96.38
68276;DHT22;55106;51.438;-0.098;2022-11-15T04:18:08;9.93;96.71
68276;DHT22;55106;51.438;-0.098;2022-11-15T04:20:34;9.96;97.03
68276;DHT22;55106;51.438;-0.098;2022-11-15T04:23:19;9.96;96.99
68276;DHT22;55106;51.438;-0.098;2022-11-15T04:26:09;10.04;96.90
68276;DHT22;55106;51.438;-0.098;2022-11-15T04:28:35;10.14;97.15
68276;DHT22;55106;51.438;-0.098;2022-11-15T04:31:20;10.16;96.94
68276;DHT22;55106;51.438;-0.098;2022-11-15T04:33:46;10.28;97.01
68276;DHT22;55106;51.438;-0.098;2022-11-15T04:36:11;10.49;96.39
68276;DHT22;55106;51.438;-0.098;2022-11-15T04:38:55;10.52;96.66
68276;DHT22;55106;51.438;-0.098;2022-11-15T04:41:20;10.69;96.29
68276;DHT22;55106;51.438;-0.098;2022-11-15T04:43:46;10.85;95.80
68276;DHT22;55106;51.438;-0.098;2022-11-15T04:46:11;10.93;95.64
68276;DHT22;55106;51.438;-0.098;2022-11-15T04:48:36;10.96;95.35
68276;DHT22;55106;51.438;-0.098;2022-11-15T04:51:04;11.03;95.09
68276;DHT22;55106;51.438;-0.098;2022-11-15T04:53:30;11.09;94.82
68276;DHT22;55106;51.438;-0.098;2022-11-15T04:55:55;11.16;94.75
68276;DHT22;55106;51.438;-0.098;2022-11-15T04:58:20;11.16;94.76
68276;DHT22;55106;51.438;-0.098;2022-11-15T05:00:45;11.17;95.00
68276;DHT22;55106;51.438;-0.098;2022-11-15T05:03:11;11.19;94.65
68276;DHT22;55106;51.438;-0.098;2022-11-15T05:05:55;11.28;94.50
68276;DHT22;55106;51.438;-0.098;2022-11-15T05:08:20;11.24;94.99
68276;DHT22;55106;51.438;-0.098;2022-11-15T05:10:45;11.37;94.01
68276;DHT22;55106;51.438;-0.098;2022-11-15T05:13:11;11.38;94.16
68276;DHT22;55106;51.438;-0.098;2022-11-15T05:15:36;11.38;94.29
68276;DHT22;55106;51.438;-0.098;2022-11-15T05:18:01;11.54;93.29
68276;DHT22;55106;51.438;-0.098;2022-11-15T05:20:27;11.58;93.16
68276;DHT22;55106;51.438;-0.098;2022-11-15T05:22:53;11.75;92.29
68276;DHT22;55106;51.438;-0.098;2022-11-15T05:25:20;11.72;92.50
68276;DHT22;55106;51.438;-0.098;2022-11-15T05:27:46;11.77;92.27
68276;DHT22;55106;51.438;-0.098;2022-11-15T05:30:11;11.81;92.25
68276;DHT22;55106;51.438;-0.098;2022-11-15T05:32:36;11.79;92.36
68276;DHT22;55106;51.438;-0.098;2022-11-15T05:35:02;11.82;92.43
68276;DHT22;55106;51.438;-0.098;2022-11-15T05:37:28;11.83;92.14
68276;DHT22;55106;51.438;-0.098;2022-11-15T05:39:53;11.83;92.22
68276;DHT22;55106;51.438;-0.098;2022-11-15T05:42:19;11.83;92.28
68276;DHT22;55106;51.438;-0.098;2022-11-15T05:44:48;11.81;92.15
68276;DHT22;55106;51.438;-0.098;2022-11-15T05:47:17;11.82;91.95
68276;DHT22;55106;51.438;-0.098;2022-11-15T05:49:44;11.85;91.99
68276;DHT22;55106;51.438;-0.098;2022-11-15T05:52:12;11.89;91.68
68276;DHT22;55106;51.438;-0.098;2022-11-15T05:54:38;11.95;91.75
68276;DHT22;55106;51.438;-0.098;2022-11-15T05:57:04;12.03;91.14
68276;DHT22;55106;51.438;-0.098;2022-11-15T05:59:30;12.00;91.04
68276;DHT22;55106;51.438;-0.098;2022-11-15T06:01:56;11.99;91.30
68276;DHT22;55106;51.438;-0.098;2022-11-15T06:04:22;11.96;91.45
68276;DHT22;55106;51.438;-0.098;2022-11-15T06:06:47;11.92;91.75
68276;DHT22;55106;51.438;-0.098;2022-11-15T06:09:13;11.89;91.95
68276;DHT22;55106;51.438;-0.098;2022-11-15T06:11:38;11.92;91.95
68276;DHT22;55106;51.438;-0.098;2022-11-15T06:14:04;11.88;92.09
68276;DHT22;55106;51.438;-0.098;2022-11-15T06:16:29;11.96;91.51
68276;DHT22;55106;51.438;-0.098;2022-11-15T06:18:55;12.05;91.54
68276;DHT22;55106;51.438;-0.098;2022-11-15T06:21:20;12.02;91.46
68276;DHT22;55106;51.438;-0.098;2022-11-15T06:23:46;12.05;91.42
68276;DHT22;55106;51.438;-0.098;2022-11-15T06:26:11;12.00;91.83
68276;DHT22;55106;51.438;-0.098;2022-11-15T06:28:36;11.98;91.94
68276;DHT22;55106;51.438;-0.098;2022-11-15T06:31:06;12.06;91.64
68276;DHT22;55106;51.438;-0.098;2022-11-15T06:33:32;12.09;91.21
68276;DHT22;55106;51.438;-0.098;2022-11-15T06:36:07;12.09;91.62
68276;DHT22;55106;51.438;-0.098;2022-11-15T06:38:33;12.08;91.54
68276;DHT22;55106;51.438;-0.098;2022-11-15T06:41:06;12.09;91.77
68276;DHT22;55106;51.438;-0.098;2022-11-15T06:43:32;12.03;92.35
68276;DHT22;55106;51.438;-0.098;2022-11-15T06:45:59;11.93;93.31
68276;DHT22;55106;51.438;-0.098;2022-11-15T06:48:25;11.89;93.71
68276;DHT22;55106;51.438;-0.098;2022-11-15T06:50:51;11.81;94.30
68276;DHT22;55106;51.438;-0.098;2022-11-15T06:53:17;11.79;94.82
68276;DHT22;55106;51.438;-0.098;2022-11-15T06:55:42;11.75;94.85
68276;DHT22;55106;51.438;-0.098;2022-11-15T06:58:08;11.67;95.45
68276;DHT22;55106;51.438;-0.098;2022-11-15T07:00:33;11.62;95.75
68276;DHT22;55106;51.438;-0.098;2022-11-15T07:03:02;11.61;95.99
68276;DHT22;55106;51.438;-0.098;2022-11-15T07:05:28;11.60;96.43
68276;DHT22;55106;51.438;-0.098;2022-11-15T07:07:54;11.54;96.83
68276;DHT22;55106;51.438;-0.098;2022-11-15T07:10:22;11.54;96.87
68276;DHT22;55106;51.438;-0.098;2022-11-15T07:12:49;11.50;97.19
68276;DHT22;55106;51.438;-0.098;2022-11-15T07:15:16;11.50;97.42
68276;DHT22;55106;51.438;-0.098;2022-11-15T07:17:41;11.48;97.96
68276;DHT22;55106;51.438;-0.098;2022-11-15T07:20:07;11.40;98.53
68276;DHT22;55106;51.438;-0.098;2022-11-15T07:22:33;11.37;99.04
68276;DHT22;55106;51.438;-0.098;2022-11-15T07:24:58;11.31;99.54
68276;DHT22;55106;51.438;-0.098;2022-11-15T07:27:23;11.28;99.79
68276;DHT22;55106;51.438;-0.098;2022-11-15T07:29:49;11.26;99.99
68276;DHT22;55106;51.438;-0.098;2022-11-15T07:32:14;11.20;99.99
68276;DHT22;55106;51.438;-0.098;2022-11-15T07:34:40;11.19;99.99
68276;DHT22;55106;51.438;-0.098;2022-11-15T07:37:05;11.13;99.99
68276;DHT22;55106;51.438;-0.098;2022-11-15T07:39:30;11.10;99.99
68276;DHT22;55106;51.438;-0.098;2022-11-15T07:41:56;11.12;99.99
68276;DHT22;55106;51.438;-0.098;2022-11-15T07:44:41;11.10;99.99
68276;DHT22;55106;51.438;-0.098;2022-11-15T07:47:06;11.07;99.99
68276;DHT22;55106;51.438;-0.098;2022-11-15T07:49:32;11.07;99.99
68276;DHT22;55106;51.438;-0.098;2022-11-15T07:51:57;11.10;99.99
68276;DHT22;55106;51.438;-0.098;2022-11-15T07:54:23;11.10;99.99
68276;DHT22;55106;51.438;-0.098;2022-11-15T07:56:48;11.07;99.99
68276;DHT22;55106;51.438;-0.098;2022-11-15T07:59:13;11.10;99.99
68276;DHT22;55106;51.438;-0.098;2022-11-15T08:01:39;11.12;99.99
68276;DHT22;55106;51.438;-0.098;2022-11-15T08:04:04;11.12;99.99
68276;DHT22;55106;51.438;-0.098;2022-11-15T08:06:29;11.12;99.99
68276;DHT22;55106;51.438;-0.098;2022-11-15T08:08:55;11.14;99.99
68276;DHT22;55106;51.438;-0.098;2022-11-15T08:11:20;11.19;99.99
68276;DHT22;55106;51.438;-0.098;2022-11-15T08:13:46;11.17;99.99
68276;DHT22;55106;51.438;-0.098;2022-11-15T08:16:11;11.14;99.99
68276;DHT22;55106;51.438;-0.098;2022-11-15T08:18:37;11.20;99.99
68276;DHT22;55106;51.438;-0.098;2022-11-15T08:21:03;11.17;99.99
68276;DHT22;55106;51.438;-0.098;2022-11-15T08:23:29;11.22;99.99
68276;DHT22;55106;51.438;-0.098;2022-11-15T08:26:02;11.20;99.99
68276;DHT22;55106;51.438;-0.098;2022-11-15T08:28:29;11.24;99.99
68276;DHT22;55106;51.438;-0.098;2022-11-15T08:30:54;11.24;99.99
68276;DHT22;55106;51.438;-0.098;2022-11-15T08:33:20;11.24;99.99
68276;DHT22;55106;51.438;-0.098;2022-11-15T08:35:45;11.27;99.99
68276;DHT22;55106;51.438;-0.098;2022-11-15T08:38:11;11.27;99.99
68276;DHT22;55106;51.438;-0.098;2022-11-15T08:40:37;11.33;99.99
68276;DHT22;55106;51.438;-0.098;2022-11-15T08:43:02;11.34;99.99
68276;DHT22;55106;51.438;-0.098;2022-11-15T08:45:29;11.34;99.99
68276;DHT22;55106;51.438;-0.098;2022-11-15T08:47:55;11.35;99.99
68276;DHT22;55106;51.438;-0.098;2022-11-15T08:50:21;11.38;99.99
68276;DHT22;55106;51.438;-0.098;2022-11-15T08:52:46;11.41;99.99
68276;DHT22;55106;51.438;-0.098;2022-11-15T08:55:13;11.47;99.99
68276;DHT22;55106;51.438;-0.098;2022-11-15T08:57:38;11.51;99.99
68276;DHT22;55106;51.438;-0.098;2022-11-15T09:00:04;11.54;99.99
68276;DHT22;55106;51.438;-0.098;2022-11-15T09:02:30;11.52;99.99
68276;DHT22;55106;51.438;-0.098;2022-11-15T09:04:55;11.57;99.99
68276;DHT22;55106;51.438;-0.098;2022-11-15T09:07:20;11.57;99.99
68276;DHT22;55106;51.438;-0.098;2022-11-15T09:09:46;11.60;99.99
68276;DHT22;55106;51.438;-0.098;2022-11-15T09:12:11;11.61;99.99
68276;DHT22;55106;51.438;-0.098;2022-11-15T09:14:37;11.64;99.99
68276;DHT22;55106;51.438;-0.098;2022-11-15T09:17:03;11.65;99.99
68276;DHT22;55106;51.438;-0.098;2022-11-15T09:19:28;11.65;99.99
68276;DHT22;55106;51.438;-0.098;2022-11-15T09:21:54;11.65;99.99
68276;DHT22;55106;51.438;-0.098;2022-11-15T09:24:19;11.65;99.99
68276;DHT22;55106;51.438;-0.098;2022-11-15T09:26:45;11.67;99.99
68276;DHT22;55106;51.438;-0.098;2022-11-15T09:29:10;11.67;99.99
68276;DHT22;55106;51.438;-0.098;2022-11-15T09:31:35;11.67;99.99
68276;DHT22;55106;51.438;-0.098;2022-11-15T09:34:01;11.71;99.99
68276;DHT22;55106;51.438;-0.098;2022-11-15T09:36:26;11.71;99.99
68276;DHT22;55106;51.438;-0.098;2022-11-15T09:38:52;11.70;99.99
68276;DHT22;55106;51.438;-0.098;2022-11-15T09:42:18;11.71;99.99
68276;DHT22;55106;51.438;-0.098;2022-11-15T09:47:44;11.74;99.99
68276;DHT22;55106;51.438;-0.098;2022-11-15T09:50:27;11.78;99.99
68276;DHT22;55106;51.438;-0.098;2022-11-15T09:52:54;11.74;99.99
68276;DHT22;55106;51.438;-0.098;2022-11-15T09:55:33;11.74;99.99
68276;DHT22;55106;51.438;-0.098;2022-11-15T09:58:18;11.79;99.99
68276;DHT22;55106;51.438;-0.098;2022-11-15T10:00:48;11.85;99.99
68276;DHT22;55106;51.438;-0.098;2022-11-15T10:03:27;11.85;99.99
68276;DHT22;55106;51.438;-0.098;2022-11-15T10:06:04;11.88;99.99
68276;DHT22;55106;51.438;-0.098;2022-11-15T10:11:06;11.99;99.99
68276;DHT22;55106;51.438;-0.098;2022-11-15T10:13:36;11.96;99.99
68276;DHT22;55106;51.438;-0.098;2022-11-15T10:22:30;12.09;99.99
68276;DHT22;55106;51.438;-0.098;2022-11-15T10:25:22;12.09;99.99
68276;DHT22;55106;51.438;-0.098;2022-11-15T10:30:40;12.09;99.99
68276;DHT22;55106;51.438;-0.098;2022-11-15T10:33:12;12.08;99.99
68276;DHT22;55106;51.438;-0.098;2022-11-15T10:35:39;12.12;99.99
68276;DHT22;55106;51.438;-0.098;2022-11-15T10:38:11;12.13;99.99
68276;DHT22;55106;51.438;-0.098;2022-11-15T10:40:38;12.13;99.99
68276;DHT22;55106;51.438;-0.098;2022-11-15T10:43:16;12.12;99.99
68276;DHT22;55106;51.438;-0.098;2022-11-15T10:45:42;12.10;99.99
68276;DHT22;55106;51.438;-0.098;2022-11-15T10:50:43;12.15;99.99
68276;DHT22;55106;51.438;-0.098;2022-11-15T10:55:50;12.10;99.99
68276;DHT22;55106;51.438;-0.098;2022-11-15T10:58:39;12.15;99.99
68276;DHT22;55106;51.438;-0.098;2022-11-15T11:01:13;12.15;99.99
68276;DHT22;55106;51.438;-0.098;2022-11-15T11:03:40;12.15;99.99
68276;DHT22;55106;51.438;-0.098;2022-11-15T11:06:17;12.15;99.99
68276;DHT22;55106;51.438;-0.098;2022-11-15T11:11:19;12.10;99.99
68276;DHT22;55106;51.438;-0.098;2022-11-15T11:13:44;12.10;99.99
68276;DHT22;55106;51.438;-0.098;2022-11-15T11:19:33;12.10;99.99
68276;DHT22;55106;51.438;-0.098;2022-11-15T11:27:39;12.10;99.99
68276;DHT22;55106;51.438;-0.098;2022-11-15T11:30:50;12.13;99.99
68276;DHT22;55106;51.438;-0.098;2022-11-15T11:33:17;12.16;99.99
68276;DHT22;55106;51.438;-0.098;2022-11-15T11:35:58;12.16;99.99
68276;DHT22;55106;51.438;-0.098;2022-11-15T11:38:37;12.15;99.99
68276;DHT22;55106;51.438;-0.098;2022-11-15T11:43:47;12.18;99.99
68276;DHT22;55106;51.438;-0.098;2022-11-15T11:49:09;12.12;98.37
68276;DHT22;55106;51.438;-0.098;2022-11-15T11:51:45;12.13;98.48
68276;DHT22;55106;51.438;-0.098;2022-11-15T11:54:20;12.16;98.52
68276;DHT22;55106;51.438;-0.098;2022-11-15T11:56:48;12.16;98.99
68276;DHT22;55106;51.438;-0.098;2022-11-15T11:59:42;12.18;99.99
68276;DHT22;55106;51.438;-0.098;2022-11-15T12:02:18;12.22;99.99
68276;DHT22;55106;51.438;-0.098;2022-11-15T12:04:50;12.27;99.99
68276;DHT22;55106;51.438;-0.098;2022-11-15T12:07:32;12.27;99.99
68276;DHT22;55106;51.438;-0.098;2022-11-15T12:10:03;12.26;99.99
68276;DHT22;55106;51.438;-0.098;2022-11-15T12:12:52;12.22;99.99
68276;DHT22;55106;51.438;-0.098;2022-11-15T12:15:23;12.19;99.99
68276;DHT22;55106;51.438;-0.098;2022-11-15T12:17:50;12.27;99.99
68276;DHT22;55106;51.438;-0.098;2022-11-15T12:20:22;12.26;99.99
68276;DHT22;55106;51.438;-0.098;2022-11-15T12:23:13;12.33;99.99
68276;DHT22;55106;51.438;-0.098;2022-11-15T12:25:59;12.32;99.99
68276;DHT22;55106;51.438;-0.098;2022-11-15T12:30:59;12.37;99.99
68276;DHT22;55106;51.438;-0.098;2022-11-15T12:33:32;12.34;99.99
68276;DHT22;55106;51.438;-0.098;2022-11-15T12:36:09;12.36;99.99
68276;DHT22;55106;51.438;-0.098;2022-11-15T12:41:33;12.46;99.99
68276;DHT22;55106;51.438;-0.098;2022-11-15T12:44:00;12.50;99.99
68276;DHT22;55106;51.438;-0.098;2022-11-15T13:02:37;12.63;99.99
68276;DHT22;55106;51.438;-0.098;2022-11-15T13:08:00;12.61;99.99
68276;DHT22;55106;51.438;-0.098;2022-11-15T13:12:56;12.75;99.99
68276;DHT22;55106;51.438;-0.098;2022-11-15T13:17:55;12.85;99.99
68276;DHT22;55106;51.438;-0.098;2022-11-15T13:20:32;12.96;99.99
68276;DHT22;55106;51.438;-0.098;2022-11-15T13:28:47;13.22;99.46
68276;DHT22;55106;51.438;-0.098;2022-11-15T13:31:36;13.30;99.99
68276;DHT22;55106;51.438;-0.098;2022-11-15T13:34:33;13.35;99.99
68276;DHT22;55106;51.438;-0.098;2022-11-15T13:36:59;13.38;99.60
68276;DHT22;55106;51.438;-0.098;2022-11-15T13:39:30;13.40;98.93
68276;DHT22;55106;51.438;-0.098;2022-11-15T13:41:56;13.33;98.59
68276;DHT22;55106;51.438;-0.098;2022-11-15T13:44:30;13.35;99.23
68276;DHT22;55106;51.438;-0.098;2022-11-15T13:47:04;13.42;98.16
68276;DHT22;55106;51.438;-0.098;2022-11-15T13:49:32;13.38;98.55
68276;DHT22;55106;51.438;-0.098;2022-11-15T13:51:59;13.43;97.90
68276;DHT22;55106;51.438;-0.098;2022-11-15T13:54:37;13.44;97.67
68276;DHT22;55106;51.438;-0.098;2022-11-15T13:57:12;13.43;97.31
68276;DHT22;55106;51.438;-0.098;2022-11-15T13:59:48;13.36;97.00
68276;DHT22;55106;51.438;-0.098;2022-11-15T14:02:16;13.26;97.27
68276;DHT22;55106;51.438;-0.098;2022-11-15T14:04:51;13.19;97.33
68276;DHT22;55106;51.438;-0.098;2022-11-15T14:07:21;13.12;97.54
68276;DHT22;55106;51.438;-0.098;2022-11-15T14:09:47;13.01;97.76
68276;DHT22;55106;51.438;-0.098;2022-11-15T14:12:33;12.91;99.03
68276;DHT22;55106;51.438;-0.098;2022-11-15T14:15:02;12.81;98.77
68276;DHT22;55106;51.438;-0.098;2022-11-15T14:17:42;12.81;97.87
68276;DHT22;55106;51.438;-0.098;2022-11-15T14:20:38;12.77;98.62
68276;DHT22;55106;51.438;-0.098;2022-11-15T14:23:24;12.77;98.44
68276;DHT22;55106;51.438;-0.098;2022-11-15T14:25:55;12.88;96.81
68276;DHT22;55106;51.438;-0.098;2022-11-15T14:30:53;12.65;97.73
68276;DHT22;55106;51.438;-0.098;2022-11-15T14:33:22;12.57;97.21
68276;DHT22;55106;51.438;-0.098;2022-11-15T14:35:48;12.48;97.12
68276;DHT22;55106;51.438;-0.098;2022-11-15T14:38:14;12.40;97.42
68276;DHT22;55106;51.438;-0.098;2022-11-15T14:40:40;12.26;97.98
68276;DHT22;55106;51.438;-0.098;2022-11-15T14:43:09;12.25;97.46
68276;DHT22;55106;51.438;-0.098;2022-11-15T14:45:35;12.15;98.06
68276;DHT22;55106;51.438;-0.098;2022-11-15T14:48:00;12.16;97.75
68276;DHT22;55106;51.438;-0.098;2022-11-15T14:50:26;12.15;97.04
68276;DHT22;55106;51.438;-0.098;2022-11-15T14:52:53;12.12;96.55
68276;DHT22;55106;51.438;-0.098;2022-11-15T14:55:30;12.08;97.16
68276;DHT22;55106;51.438;-0.098;2022-11-15T14:58:00;11.93;98.20
68276;DHT22;55106;51.438;-0.098;2022-11-15T15:00:28;11.88;97.65
68276;DHT22;55106;51.438;-0.098;2022-11-15T15:02:54;11.93;97.77
68276;DHT22;55106;51.438;-0.098;2022-11-15T15:07:47;11.95;96.99
68276;DHT22;55106;51.438;-0.098;2022-11-15T15:10:13;11.89;97.62
68276;DHT22;55106;51.438;-0.098;2022-11-15T15:12:39;11.89;96.57
68276;DHT22;55106;51.438;-0.098;2022-11-15T15:15:05;11.79;97.81
68276;DHT22;55106;51.438;-0.098;2022-11-15T15:17:31;11.79;97.92
68276;DHT22;55106;51.438;-0.098;2022-11-15T15:19:56;11.77;98.38
68276;DHT22;55106;51.438;-0.098;2022-11-15T15:22:22;11.78;98.17
68276;DHT22;55106;51.438;-0.098;2022-11-15T15:24:50;11.79;97.60
68276;DHT22;55106;51.438;-0.098;2022-11-15T15:27:16;11.77;97.49
68276;DHT22;55106;51.438;-0.098;2022-11-15T15:29:41;11.65;98.28
68276;DHT22;55106;51.438;-0.098;2022-11-15T15:32:07;11.62;98.17
68276;DHT22;55106;51.438;-0.098;2022-11-15T15:34:33;11.61;98.53
68276;DHT22;55106;51.438;-0.098;2022-11-15T15:39:48;11.68;99.15
68276;DHT22;55106;51.438;-0.098;2022-11-15T15:42:14;11.74;99.21
68276;DHT22;55106;51.438;-0.098;2022-11-15T15:44:39;11.81;99.22
68276;DHT22;55106;51.438;-0.098;2022-11-15T15:47:23;11.83;99.75
68276;DHT22;55106;51.438;-0.098;2022-11-15T15:49:49;11.79;99.99
68276;DHT22;55106;51.438;-0.098;2022-11-15T15:52:15;11.74;99.99
68276;DHT22;55106;51.438;-0.098;2022-11-15T15:54:41;11.72;99.99
68276;DHT22;55106;51.438;-0.098;2022-11-15T15:57:08;11.67;99.99
68276;DHT22;55106;51.438;-0.098;2022-11-15T15:59:35;11.61;99.99
68276;DHT22;55106;51.438;-0.098;2022-11-15T16:02:01;11.57;99.99
68276;DHT22;55106;51.438;-0.098;2022-11-15T16:04:26;11.58;99.99
68276;DHT22;55106;51.438;-0.098;2022-11-15T16:06:58;11.64;99.99
68276;DHT22;55106;51.438;-0.098;2022-11-15T16:09:24;11.54;99.99
68276;DHT22;55106;51.438;-0.098;2022-11-15T16:12:10;11.52;99.99
68276;DHT22;55106;51.438;-0.098;2022-11-15T16:14:36;11.48;99.99
68276;DHT22;55106;51.438;-0.098;2022-11-15T16:17:02;11.43;99.99
68276;DHT22;55106;51.438;-0.098;2022-11-15T16:19:28;11.40;99.99
68276;DHT22;55106;51.438;-0.098;2022-11-15T16:21:53;11.37;99.99
68276;DHT22;55106;51.438;-0.098;2022-11-15T16:24:19;11.38;99.99
68276;DHT22;55106;51.438;-0.098;2022-11-15T16:26:46;11.33;99.99
68276;DHT22;55106;51.438;-0.098;2022-11-15T16:29:12;11.26;99.99
68276;DHT22;55106;51.438;-0.098;2022-11-15T16:31:37;11.23;99.99
68276;DHT22;55106;51.438;-0.098;2022-11-15T16:34:03;11.20;99.99
68276;DHT22;55106;51.438;-0.098;2022-11-15T16:36:31;11.06;99.99
68276;DHT22;55106;51.438;-0.098;2022-11-15T16:38:58;10.96;99.99
68276;DHT22;55106;51.438;-0.098;2022-11-15T16:41:23;10.93;99.99
68276;DHT22;55106;51.438;-0.098;2022-11-15T16:43:49;10.79;99.99
68276;DHT22;55106;51.438;-0.098;2022-11-15T16:46:19;10.76;99.99
68276;DHT22;55106;51.438;-0.098;2022-11-15T16:48:45;10.76;99.99
68276;DHT22;55106;51.438;-0.098;2022-11-15T16:51:11;10.73;99.99
68276;DHT22;55106;51.438;-0.098;2022-11-15T16:53:37;10.62;99.99
68276;DHT22;55106;51.438;-0.098;2022-11-15T16:56:03;10.59;99.99
68276;DHT22;55106;51.438;-0.098;2022-11-15T16:58:28;10.52;99.99
68276;DHT22;55106;51.438;-0.098;2022-11-15T17:00:55;10.44;99.99
68276;DHT22;55106;51.438;-0.098;2022-11-15T17:03:23;10.41;99.99
68276;DHT22;55106;51.438;-0.098;2022-11-15T17:05:49;10.44;99.99
68276;DHT22;55106;51.438;-0.098;2022-11-15T17:08:15;10.31;99.99
68276;DHT22;55106;51.438;-0.098;2022-11-15T17:10:40;10.34;99.99